Иваньково

Карта отелей и гостиниц, располагающихся рядом с аэропортом Иваньково :

Иваньково Тульская область 54° 43' 6.51" N, 37° 56' 33.54" E
Иваньково Тульская область 54° 43' 6.51" N, 37° 56' 33.54" E
Код аэродрома ИКАО
UUGI
Код аэродрома RU
УУГИ
Координаты
N54.71847° E037.94265°
Превышение над уровнем моря
215
Основная полоса
06/24
Курс магнитный
054,5/234,5
Длина основной ВПП
1200
Ширина основной ВПП
30
Покрытие основной ВПП
Твёрдое
Освещение ВПП
Нет
Тип: 
Аэродром
Класс аэродрома: 
Принадлежность: 
АОН
Статус: 
Недействующий
Сайт: 
E-mail аэродрома: 
v.derevyanko@s7.ru
Страна: 
Россия
Регион: 
Тульская область
Город: 
Дополнительная информация: 
Оператор: ООО "Бизнес-партнер". ПП зарегистрирована в МТУ ВТ ЦР ФАВТ 02 дек 2013 №ЦП3-323.

Найти трансфер

С помощью этой формы Вы можете найти трансфер из аэропорта Иваньково в город, аэропорт или вокзал:

Карта места

Javascript is required to view this map.

Погода в аэропортах:

Авиационная погода в аэропорту Алыкель

Регион: 
Погода METAR: 
UOOO 050800Z 02004MPS 1000 R01/1000N FU SCT024 19/14 Q1015 R01/CLRD60 NOSIG RMK QFE747/0996
Время наблюдения
2021-08-05T08:00:00Z
Температура C
19.0
Точка росы
14.0
Направление ветра
20
Скорость ветра (узлы)
8
Метео видимость
0.62
Явления погоды
FU
Условия полета
LIFR
Аэропорт подробнее: 

Авиационная погода в Сургуте

Регион: 
Погода METAR: 
USRR 050900Z 36002MPS 320V040 2100 R07/1900N BR BKN022 19/18 Q1012 R07/CLRD60 TEMPO 1000 BR RMK OBST OBSC QFE754
Время наблюдения
2021-08-05T09:00:00Z
Температура C
19.0
Точка росы
18.0
Направление ветра
360
Скорость ветра (узлы)
4
Метео видимость
1.3
Явления погоды
BR
Условия полета
IFR
Аэропорт подробнее: 

Авиационная погода в Вадсё

Регион: 
Погода METAR: 
ENVD 050750Z 27008KT 9999 VCSH FEW022 13/09 Q1009
Время наблюдения
2021-08-05T07:50:00Z
Температура C
13.0
Точка росы
9.0
Направление ветра
270
Скорость ветра (узлы)
8
Метео видимость
6.21
Явления погоды
VCSH
Условия полета
VFR

Авиационная погода в Мирном

Регион: 
Погода METAR: 
UERR 050800Z 06003MPS 0600 HZ VV005 21/13 Q1005 R25/CLRD60 NOSIG RMK QBB150 QFE723/0964
Время наблюдения
2021-08-05T08:00:00Z
Температура C
21.0
Точка росы
13.0
Направление ветра
60
Скорость ветра (узлы)
6
Метео видимость
0.37
Явления погоды
HZ
Условия полета
LIFR
Аэропорт подробнее: